Time;durP1;ratioP1;P1;durP2;ratioP2;P2;SDS_P1;SDS_P2;PMS_P1;PMS_P2;Temp;Humidity;BMP_temperature;BMP_pressure;BME280_temperature;BME280_humidity;BME280_pressure;Samples;Min_cycle;Max_cycle;Signal;HPM_P1;HPM_P2
2022/11/25 00:00:00;;;;;;;1.97;1.83;;;6.80;97.30;;;;;;5056902;28;20223;-85
2022/11/25 00:02:26;;;;;;;2.40;2.23;;;6.80;97.30;;;;;;5074609;28;20222;-85
2022/11/25 00:04:52;;;;;;;1.53;1.43;;;6.80;97.30;;;;;;5074191;28;20752;-86
2022/11/25 00:07:17;;;;;;;2.70;2.50;;;6.90;97.30;;;;;;5056909;28;20175;-85
2022/11/25 00:09:43;;;;;;;2.17;2.00;;;6.90;97.30;;;;;;5056578;28;20200;-85
2022/11/25 00:12:08;;;;;;;1.67;1.57;;;6.90;97.30;;;;;;5074602;28;20175;-85
2022/11/25 00:14:34;;;;;;;2.60;2.40;;;6.90;97.30;;;;;;5056428;28;20171;-87
2022/11/25 00:16:59;;;;;;;1.93;1.80;;;6.90;97.30;;;;;;5057424;28;20179;-84
2022/11/25 00:19:25;;;;;;;1.97;1.87;;;6.90;97.30;;;;;;5057526;28;20670;-84
2022/11/25 00:21:50;;;;;;;4.30;3.00;;;6.90;97.30;;;;;;5058081;28;20179;-84
2022/11/25 00:24:16;;;;;;;4.90;1.83;;;6.90;97.30;;;;;;5075625;28;20203;-84
2022/11/25 00:26:42;;;;;;;3.27;3.07;;;6.90;97.30;;;;;;5058422;28;20183;-83
2022/11/25 00:29:10;;;;;;;1.30;1.20;;;6.90;97.30;;;;;;5058955;28;20189;-83
2022/11/25 00:31:38;;;;;;;4.90;2.70;;;6.90;97.30;;;;;;5058965;28;20476;-84
2022/11/25 00:34:03;;;;;;;3.50;2.23;;;6.90;97.30;;;;;;5058344;28;20437;-84
2022/11/25 00:36:31;;;;;;;1.43;1.30;;;6.80;97.30;;;;;;5058246;28;20422;-83
2022/11/25 00:39:12;;;;;;;1.50;1.40;;;6.80;97.30;;;;;;5058097;28;20429;-84
2022/11/25 00:44:35;;;;;;;1.50;1.40;;;6.70;97.30;;;;;;5075685;28;20456;-85
2022/11/25 00:47:08;;;;;;;2.33;2.13;;;6.70;97.30;;;;;;5037958;28;20419;-84
2022/11/25 00:49:34;;;;;;;1.30;1.20;;;6.70;97.30;;;;;;5038198;28;20418;-84
2022/11/25 00:52:00;;;;;;;2.90;1.87;;;6.60;97.30;;;;;;5055925;28;20421;-84
2022/11/25 00:54:25;;;;;;;1.67;1.63;;;6.50;97.30;;;;;;5037467;28;20426;-84
2022/11/25 00:56:51;;;;;;;1.53;1.40;;;6.50;97.30;;;;;;5057902;28;20225;-83
2022/11/25 00:59:17;;;;;;;1.10;1.00;;;6.40;97.30;;;;;;5058998;28;20707;-82
2022/11/25 01:01:42;;;;;;;2.10;1.97;;;6.30;97.30;;;;;;5059634;28;20240;-83
2022/11/25 01:04:08;;;;;;;3.80;2.23;;;6.20;97.30;;;;;;5058599;28;20965;-83
2022/11/25 01:06:35;;;;;;;2.03;1.73;;;6.20;97.30;;;;;;5058663;28;20197;-84
2022/11/25 01:09:01;;;;;;;2.10;1.90;;;6.10;97.30;;;;;;5076470;28;20179;-83
2022/11/25 01:11:27;;;;;;;1.47;1.37;;;6.10;97.30;;;;;;5058451;28;20447;-83
2022/11/25 01:13:55;;;;;;;2.30;1.77;;;6.00;97.30;;;;;;5058079;28;20234;-84
2022/11/25 01:16:21;;;;;;;1.63;1.40;;;6.00;97.30;;;;;;5058508;28;20876;-84
2022/11/25 01:18:49;;;;;;;3.73;2.10;;;6.00;97.30;;;;;;5058882;28;20941;-84
2022/11/25 01:21:27;;;;;;;2.53;2.37;;;6.00;97.30;;;;;;5076082;28;20421;-83
2022/11/25 01:23:54;;;;;;;7.00;3.63;;;6.00;97.30;;;;;;5058312;28;20460;-83
2022/11/25 01:26:22;;;;;;;2.63;1.80;;;6.00;97.30;;;;;;5057505;28;20421;-84
2022/11/25 01:28:51;;;;;;;1.40;1.30;;;6.00;97.30;;;;;;5056678;28;20923;-84
2022/11/25 01:31:19;;;;;;;1.23;1.20;;;5.90;97.30;;;;;;5056098;28;20545;-85
2022/11/25 01:33:47;;;;;;;3.43;3.23;;;5.90;97.30;;;;;;5056109;28;20457;-84
2022/11/25 01:36:15;;;;;;;2.63;2.43;;;5.80;97.30;;;;;;5055867;28;20821;-85
2022/11/25 01:38:41;;;;;;;1.10;1.00;;;5.80;97.30;;;;;;5072538;28;20507;-84
2022/11/25 01:41:10;;;;;;;3.00;2.50;;;5.70;97.30;;;;;;5055639;28;20421;-85
2022/11/25 01:43:36;;;;;;;1.83;1.73;;;5.60;97.30;;;;;;5055429;28;20979;-85
2022/11/25 01:46:04;;;;;;;2.30;1.50;;;5.50;97.30;;;;;;5055415;28;20471;-85
2022/11/25 01:48:58;;;;;;;1.27;1.17;;;5.50;97.30;;;;;;5055475;28;20416;-85
2022/11/25 01:51:49;;;;;;;2.07;1.93;;;5.40;97.30;;;;;;5072998;28;20408;-85
2022/11/25 01:54:20;;;;;;;1.10;1.00;;;5.30;97.30;;;;;;5056509;28;20441;-86
2022/11/25 01:56:56;;;;;;;7.37;2.23;;;5.20;97.30;;;;;;5056549;28;20417;-84
2022/11/25 01:59:23;;;;;;;2.40;1.57;;;5.20;97.30;;;;;;5057018;28;20406;-84
2022/11/25 02:01:49;;;;;;;3.23;1.67;;;5.10;97.30;;;;;;5056697;28;20453;-83
2022/11/25 02:04:17;;;;;;;2.53;2.33;;;5.00;97.30;;;;;;5056858;28;20464;-84
2022/11/25 02:06:56;;;;;;;6.10;2.30;;;5.00;97.30;;;;;;5057950;28;20413;-83
2022/11/25 02:09:22;;;;;;;1.70;1.60;;;4.90;97.30;;;;;;5058155;28;20425;-84
2022/11/25 02:11:50;;;;;;;1.70;1.60;;;4.90;97.30;;;;;;5076014;28;20459;-83
2022/11/25 02:14:19;;;;;;;1.40;1.20;;;4.80;97.30;;;;;;5058125;28;20491;-84
2022/11/25 02:16:44;;;;;;;1.53;1.43;;;4.70;97.30;;;;;;5057312;28;20452;-84
2022/11/25 02:19:31;;;;;;;1.63;1.53;;;4.60;97.30;;;;;;5058090;28;20922;-83
2022/11/25 02:22:01;;;;;;;1.57;1.53;;;4.50;97.30;;;;;;5056387;28;20578;-84
2022/11/25 02:24:44;;;;;;;1.10;1.10;;;4.50;97.30;;;;;;5056537;28;20536;-85
2022/11/25 02:27:10;;;;;;;1.40;1.30;;;4.40;97.30;;;;;;5056278;28;20452;-84
2022/11/25 02:29:36;;;;;;;1.27;1.17;;;4.40;97.30;;;;;;5055875;28;20421;-84
2022/11/25 02:32:02;;;;;;;1.10;1.00;;;4.30;97.30;;;;;;5085583;22;20496;-83
2022/11/25 02:34:27;;;;;;;0.90;0.80;;;4.20;97.30;;;;;;5037138;28;20497;-84
2022/11/25 02:36:53;;;;;;;3.20;3.00;;;4.20;97.30;;;;;;5061455;28;20218;-84
2022/11/25 02:39:20;;;;;;;1.47;1.33;;;4.10;97.30;;;;;;5058054;28;20183;-84
2022/11/25 02:41:58;;;;;;;1.70;1.60;;;4.00;97.30;;;;;;5075518;28;20828;-83
2022/11/25 02:44:24;;;;;;;1.63;1.53;;;3.90;97.30;;;;;;5057872;28;20463;-84
2022/11/25 02:46:50;;;;;;;2.10;1.93;;;3.90;97.30;;;;;;5057388;28;20862;-86
2022/11/25 02:49:15;;;;;;;3.60;2.27;;;3.80;97.30;;;;;;5057783;28;20175;-83
2022/11/25 02:51:43;;;;;;;1.30;1.20;;;3.80;97.30;;;;;;5057698;28;20198;-83
2022/11/25 02:54:10;;;;;;;2.00;1.90;;;3.70;97.30;;;;;;5058596;28;20186;-85
2022/11/25 02:56:38;;;;;;;1.77;1.60;;;3.70;97.30;;;;;;5058289;28;20472;-83
2022/11/25 02:59:04;;;;;;;1.17;1.07;;;3.60;97.30;;;;;;5058232;28;20409;-83
2022/11/25 03:01:30;;;;;;;1.00;0.90;;;3.60;97.30;;;;;;5075990;28;20486;-84
2022/11/25 03:03:56;;;;;;;1.00;0.90;;;3.50;97.30;;;;;;5057647;28;20276;-85
2022/11/25 03:06:23;;;;;;;1.50;1.47;;;3.50;97.30;;;;;;5057791;28;21041;-85
2022/11/25 03:08:48;;;;;;;3.20;3.00;;;3.60;97.30;;;;;;5075445;28;20449;-84
2022/11/25 03:11:14;;;;;;;1.00;0.90;;;3.60;97.30;;;;;;5057241;28;20199;-86
2022/11/25 03:13:40;;;;;;;1.20;1.10;;;3.70;97.30;;;;;;5057550;28;20661;-84
2022/11/25 03:16:06;;;;;;;1.57;1.47;;;3.70;97.30;;;;;;5074971;28;20254;-85
2022/11/25 03:18:32;;;;;;;2.10;1.53;;;3.70;97.30;;;;;;5057814;28;20420;-85
2022/11/25 03:20:57;;;;;;;3.03;2.33;;;3.70;97.30;;;;;;5058494;28;20477;-84
2022/11/25 03:23:23;;;;;;;2.30;2.10;;;3.70;97.30;;;;;;5057950;28;20199;-85
2022/11/25 03:25:49;;;;;;;5.37;3.90;;;3.80;97.30;;;;;;5076331;28;20207;-85
2022/11/25 03:28:14;;;;;;;1.43;1.33;;;3.70;97.30;;;;;;5079799;28;20402;-84
2022/11/25 03:30:40;;;;;;;1.50;1.40;;;3.70;97.30;;;;;;5061392;28;20630;-81
2022/11/25 03:33:05;;;;;;;2.43;2.23;;;3.70;97.30;;;;;;5079248;28;20593;-86
2022/11/25 03:35:31;;;;;;;4.40;1.93;;;3.60;97.30;;;;;;5060867;28;20214;-84
2022/11/25 03:37:56;;;;;;;1.50;1.40;;;3.60;97.30;;;;;;5061456;28;20171;-83
2022/11/25 03:40:22;;;;;;;1.83;1.53;;;3.50;97.30;;;;;;5061315;28;20175;-85
2022/11/25 03:42:48;;;;;;;1.33;1.23;;;3.50;97.30;;;;;;5062010;28;20286;-86
2022/11/25 03:45:14;;;;;;;1.10;1.00;;;3.40;97.30;;;;;;5061229;28;20661;-83
2022/11/25 03:47:41;;;;;;;3.27;2.10;;;3.30;97.30;;;;;;5061433;28;20417;-86
2022/11/25 03:50:09;;;;;;;1.70;1.60;;;3.30;97.30;;;;;;5079608;28;20414;-85
2022/11/25 03:52:35;;;;;;;2.37;2.17;;;3.20;97.30;;;;;;5061669;28;20472;-85
2022/11/25 03:55:00;;;;;;;2.90;2.50;;;3.10;97.30;;;;;;5060953;28;20418;-86
2022/11/25 03:57:26;;;;;;;2.23;2.03;;;3.10;97.30;;;;;;5076889;28;20435;-84
2022/11/25 03:59:51;;;;;;;2.20;2.07;;;3.00;97.30;;;;;;5061779;28;20591;-84
2022/11/25 04:02:17;;;;;;;8.23;4.10;;;2.90;97.30;;;;;;5061822;28;20205;-85
2022/11/25 04:04:42;;;;;;;2.30;2.10;;;2.90;97.30;;;;;;5061996;28;20201;-85
2022/11/25 04:07:08;;;;;;;2.90;2.30;;;2.90;97.30;;;;;;5061047;28;20182;-84
2022/11/25 04:09:34;;;;;;;2.70;2.40;;;2.80;97.30;;;;;;5044851;28;20179;-88
2022/11/25 04:14:43;;;;;;;3.30;3.10;;;2.70;97.30;;;;;;5058440;28;20214;-84
2022/11/25 04:17:09;;;;;;;1.40;1.30;;;2.70;97.30;;;;;;5054120;28;20418;-82
2022/11/25 04:19:34;;;;;;;4.83;2.40;;;2.60;97.30;;;;;;5078544;28;20238;-86
2022/11/25 04:22:01;;;;;;;1.57;1.47;;;2.50;97.30;;;;;;5063459;28;20195;-85
2022/11/25 04:24:27;;;;;;;1.97;1.83;;;2.50;97.30;;;;;;5050572;28;20192;-85
2022/11/25 04:26:53;;;;;;;1.40;1.30;;;2.40;97.30;;;;;;5054627;28;20410;-84
2022/11/25 04:29:18;;;;;;;1.80;1.70;;;2.40;97.30;;;;;;5056307;28;20421;-84
2022/11/25 04:31:44;;;;;;;3.03;1.93;;;2.40;97.30;;;;;;5042570;28;20231;-85
2022/11/25 04:34:10;;;;;;;1.47;1.37;;;2.40;97.30;;;;;;5041718;28;20190;-84
2022/11/25 04:36:35;;;;;;;1.30;1.20;;;2.40;97.30;;;;;;5069081;28;20453;-86
2022/11/25 04:39:01;;;;;;;1.20;1.10;;;2.40;97.30;;;;;;5058392;28;20189;-84
2022/11/25 04:41:26;;;;;;;1.20;1.10;;;2.40;97.30;;;;;;5060017;28;20297;-82
2022/11/25 04:43:52;;;;;;;8.80;2.97;;;2.40;97.30;;;;;;5078444;28;20202;-84
2022/11/25 04:46:21;;;;;;;3.03;1.87;;;2.40;97.30;;;;;;5078209;28;20226;-85
2022/11/25 04:48:47;;;;;;;1.20;1.10;;;2.40;97.30;;;;;;5063479;28;20179;-86
2022/11/25 04:51:12;;;;;;;4.67;2.27;;;2.40;97.30;;;;;;5063982;28;20460;-87
2022/11/25 04:53:38;;;;;;;1.80;1.70;;;2.50;97.30;;;;;;5060030;28;20179;-84
2022/11/25 04:56:04;;;;;;;1.43;1.33;;;2.50;97.30;;;;;;5074328;28;20182;-84
2022/11/25 05:01:13;;;;;;;1.50;1.40;;;2.50;97.30;;;;;;5075206;28;20440;-85
2022/11/25 05:03:39;;;;;;;1.63;1.53;;;2.50;97.30;;;;;;5056647;28;20457;-88
2022/11/25 05:06:09;;;;;;;1.73;1.40;;;2.50;97.30;;;;;;5056151;28;20234;-85
2022/11/25 05:08:35;;;;;;;2.03;1.90;;;2.50;97.30;;;;;;5056980;28;20175;-85
2022/11/25 05:11:01;;;;;;;3.60;2.90;;;2.40;97.30;;;;;;5056657;28;20440;-85
2022/11/25 05:13:27;;;;;;;1.60;1.50;;;2.40;97.30;;;;;;5056743;28;20528;-84
2022/11/25 05:15:52;;;;;;;1.40;1.30;;;2.30;97.30;;;;;;5056205;28;20429;-84
2022/11/25 05:18:18;;;;;;;1.13;1.03;;;2.30;97.30;;;;;;5057585;28;20183;-87
2022/11/25 05:20:44;;;;;;;2.83;2.63;;;2.20;97.30;;;;;;5056637;28;20194;-84
2022/11/25 05:23:10;;;;;;;3.37;3.17;;;2.20;97.30;;;;;;5054862;28;20262;-84
2022/11/25 05:25:35;;;;;;;1.90;1.80;;;2.20;97.30;;;;;;5037876;28;20465;-84
2022/11/25 05:28:02;;;;;;;1.87;1.77;;;2.10;97.30;;;;;;5055860;28;20483;-85
2022/11/25 05:30:27;;;;;;;1.37;1.27;;;2.10;97.30;;;;;;5056404;28;20258;-86
2022/11/25 05:32:53;;;;;;;2.40;2.20;;;2.20;97.30;;;;;;5036130;28;20517;-84
2022/11/25 05:35:20;;;;;;;1.13;1.13;;;2.20;97.30;;;;;;5055027;28;21117;-85
2022/11/25 05:37:54;;;;;;;2.27;2.07;;;2.20;97.30;;;;;;5038157;28;20183;-86
2022/11/25 05:40:19;;;;;;;6.63;2.60;;;2.20;97.30;;;;;;5037214;28;20418;-87
2022/11/25 05:42:45;;;;;;;1.67;1.57;;;2.10;97.30;;;;;;5036934;28;21065;-84
2022/11/25 05:45:11;;;;;;;1.97;1.53;;;2.10;97.30;;;;;;5038461;28;20203;-84
2022/11/25 05:47:36;;;;;;;2.90;2.70;;;2.00;97.30;;;;;;5038892;28;20183;-84
2022/11/25 05:50:02;;;;;;;2.40;1.60;;;2.00;97.30;;;;;;5036935;28;20406;-85
2022/11/25 05:52:27;;;;;;;1.37;1.37;;;1.90;97.30;;;;;;5038397;28;20219;-84
2022/11/25 05:54:53;;;;;;;1.53;1.43;;;1.90;97.30;;;;;;5032720;28;20183;-84
2022/11/25 05:57:18;;;;;;;1.37;1.27;;;1.90;97.30;;;;;;5036207;28;20168;-84
2022/11/25 05:59:44;;;;;;;3.83;3.63;;;1.80;97.30;;;;;;5038164;28;20611;-84
2022/11/25 06:02:10;;;;;;;1.70;1.60;;;1.80;97.30;;;;;;5037351;28;20806;-84
2022/11/25 06:04:36;;;;;;;2.70;1.80;;;1.80;97.30;;;;;;5036835;28;20214;-85
2022/11/25 06:07:02;;;;;;;1.83;1.73;;;1.70;97.30;;;;;;5048314;28;20421;-84
2022/11/25 06:09:27;;;;;;;2.80;2.60;;;1.70;97.30;;;;;;5056923;28;20552;-84
2022/11/25 06:11:53;;;;;;;3.57;2.80;;;1.70;97.30;;;;;;5038526;28;20206;-83
2022/11/25 06:14:18;;;;;;;3.07;2.30;;;1.70;97.30;;;;;;5038709;28;20191;-84
2022/11/25 06:16:44;;;;;;;2.73;2.53;;;1.70;97.30;;;;;;5045878;28;20278;-86
2022/11/25 06:19:09;;;;;;;6.17;2.70;;;1.60;97.30;;;;;;5055828;28;20481;-85
2022/11/25 06:21:35;;;;;;;1.17;1.07;;;1.60;97.30;;;;;;5034694;28;20282;-84
2022/11/25 06:24:01;;;;;;;1.20;1.13;;;1.60;97.30;;;;;;5026739;28;20200;-83
2022/11/25 06:26:27;;;;;;;1.70;1.60;;;1.60;97.30;;;;;;5036330;28;20429;-85
2022/11/25 06:28:54;;;;;;;1.30;1.20;;;1.50;97.30;;;;;;5036589;28;20574;-81
2022/11/25 06:31:22;;;;;;;1.93;1.83;;;1.50;97.30;;;;;;5053918;28;20234;-83
2022/11/25 06:33:49;;;;;;;1.20;1.10;;;1.50;97.30;;;;;;5036340;28;20419;-86
2022/11/25 06:36:16;;;;;;;1.63;1.53;;;1.50;97.30;;;;;;5038418;28;20418;-82
2022/11/25 06:38:47;;;;;;;1.50;1.40;;;1.50;97.30;;;;;;5032109;28;20430;-85
2022/11/25 06:41:12;;;;;;;2.53;2.33;;;1.60;97.30;;;;;;5034363;28;20467;-79
2022/11/25 06:43:38;;;;;;;1.53;1.43;;;1.60;97.30;;;;;;5052102;28;20825;-78
2022/11/25 06:46:06;;;;;;;1.97;1.93;;;1.60;97.30;;;;;;5033883;28;20424;-81
2022/11/25 06:48:32;;;;;;;3.80;2.00;;;1.50;97.30;;;;;;5033630;28;20172;-81
2022/11/25 06:51:00;;;;;;;1.67;1.57;;;1.50;97.30;;;;;;5050241;28;20513;-79
2022/11/25 06:53:26;;;;;;;3.00;2.80;;;1.50;97.30;;;;;;5033234;28;20184;-79
2022/11/25 06:56:04;;;;;;;1.43;1.27;;;1.50;97.30;;;;;;5034713;28;20422;-79
2022/11/25 06:58:29;;;;;;;1.87;1.77;;;1.50;97.30;;;;;;5033973;28;20425;-85
2022/11/25 07:01:00;;;;;;;1.77;1.67;;;1.50;97.30;;;;;;5044712;28;21204;-85
2022/11/25 07:03:28;;;;;;;2.40;2.20;;;1.50;97.30;;;;;;5044947;28;20259;-84
2022/11/25 07:05:56;;;;;;;1.20;1.10;;;1.50;97.30;;;;;;5057836;28;20432;-85
2022/11/25 07:08:23;;;;;;;2.53;2.33;;;1.50;97.30;;;;;;5042068;28;20426;-86
2022/11/25 07:10:51;;;;;;;1.73;1.63;;;1.50;97.30;;;;;;5035002;28;20426;-86
2022/11/25 07:13:17;;;;;;;2.07;1.93;;;1.60;97.30;;;;;;5053088;28;20490;-84
2022/11/25 07:15:42;;;;;;;2.57;2.43;;;1.60;97.30;;;;;;5039954;28;20441;-84
2022/11/25 07:18:08;;;;;;;3.33;3.13;;;1.70;97.30;;;;;;5039802;28;20233;-87
2022/11/25 07:20:33;;;;;;;1.77;1.60;;;1.70;97.30;;;;;;5040152;28;20722;-85
2022/11/25 07:22:59;;;;;;;1.60;1.50;;;1.70;97.30;;;;;;5040635;28;20196;-84
2022/11/25 07:25:24;;;;;;;1.10;1.00;;;1.70;97.30;;;;;;5040796;28;20203;-87
2022/11/25 07:27:52;;;;;;;3.43;3.23;;;1.70;97.30;;;;;;5040990;28;20477;-84
2022/11/25 07:30:18;;;;;;;2.50;2.30;;;1.70;97.30;;;;;;5041476;28;20206;-85
2022/11/25 07:32:43;;;;;;;1.97;1.87;;;1.70;97.30;;;;;;5041054;28;20466;-86
2022/11/25 07:35:09;;;;;;;2.30;1.97;;;1.80;97.30;;;;;;5041988;28;20678;-84
2022/11/25 07:37:34;;;;;;;1.50;1.40;;;2.00;97.30;;;;;;5040862;28;20172;-85
2022/11/25 07:40:00;;;;;;;2.90;2.70;;;2.10;97.30;;;;;;5040754;28;20242;-84
2022/11/25 07:42:26;;;;;;;1.60;1.50;;;2.20;97.30;;;;;;5040177;28;20195;-88
2022/11/25 07:44:51;;;;;;;20.97;2.50;;;2.30;97.30;;;;;;5058510;28;20200;-85
2022/11/25 07:47:19;;;;;;;2.90;2.70;;;2.40;97.30;;;;;;5041296;28;20414;-84
2022/11/25 07:49:45;;;;;;;1.20;1.13;;;2.50;97.30;;;;;;5040643;28;20305;-86
2022/11/25 07:52:10;;;;;;;1.97;1.73;;;2.60;97.30;;;;;;5040386;28;20458;-86
2022/11/25 07:54:36;;;;;;;5.80;3.60;;;2.60;97.30;;;;;;5040512;28;20210;-86
2022/11/25 07:57:01;;;;;;;4.20;2.93;;;2.70;97.30;;;;;;5040903;28;20176;-84
2022/11/25 07:59:27;;;;;;;3.97;2.60;;;2.80;97.30;;;;;;5040757;28;20180;-85
2022/11/25 08:01:54;;;;;;;1.20;1.10;;;2.90;97.30;;;;;;5040685;28;20195;-84
2022/11/25 08:04:20;;;;;;;6.67;3.43;;;3.00;97.30;;;;;;5040312;28;20214;-86
2022/11/25 08:06:46;;;;;;;1.80;1.70;;;3.00;97.30;;;;;;5040275;28;20426;-86
2022/11/25 08:09:17;;;;;;;2.37;2.17;;;3.10;97.30;;;;;;5058159;28;20414;-85
2022/11/25 08:11:42;;;;;;;1.50;1.40;;;3.10;97.30;;;;;;5040015;28;20462;-85
2022/11/25 08:14:09;;;;;;;2.23;2.03;;;3.20;97.30;;;;;;5056696;28;20425;-87
2022/11/25 08:16:35;;;;;;;2.20;1.83;;;3.20;97.30;;;;;;5030762;28;20216;-84
2022/11/25 08:19:03;;;;;;;1.37;1.27;;;3.30;97.30;;;;;;5040750;28;20423;-85
2022/11/25 08:21:29;;;;;;;2.30;2.10;;;3.40;97.30;;;;;;5058021;28;20844;-85
2022/11/25 08:23:55;;;;;;;8.60;2.73;;;3.50;97.30;;;;;;5040328;28;20445;-87
2022/11/25 08:26:24;;;;;;;3.07;2.87;;;3.60;97.30;;;;;;5040358;28;20179;-86
2022/11/25 08:28:51;;;;;;;1.63;1.37;;;3.70;97.30;;;;;;5057399;28;20561;-84
2022/11/25 08:33:47;;;;;;;2.70;2.50;;;4.00;97.30;;;;;;5049185;28;20454;-87
2022/11/25 08:36:14;;;;;;;1.63;1.53;;;4.10;97.30;;;;;;5035423;28;20419;-86
2022/11/25 08:38:40;;;;;;;2.53;2.33;;;4.10;97.30;;;;;;5053603;28;20413;-87
2022/11/25 08:41:30;;;;;;;2.30;1.83;;;4.20;97.30;;;;;;5035324;28;20415;-87
2022/11/25 08:43:58;;;;;;;1.93;1.43;;;4.30;97.30;;;;;;5015127;28;20454;-87
2022/11/25 08:46:28;;;;;;;14.97;3.50;;;4.40;97.30;;;;;;5014935;28;20940;-87
2022/11/25 08:48:55;;;;;;;2.30;2.10;;;4.50;97.30;;;;;;5015271;28;20970;-87
2022/11/25 08:51:24;;;;;;;2.77;2.57;;;4.60;97.30;;;;;;5014658;28;20466;-87
2022/11/25 08:53:50;;;;;;;2.40;1.77;;;4.70;97.30;;;;;;5015005;28;20455;-87
2022/11/25 08:56:16;;;;;;;2.77;2.57;;;4.80;97.30;;;;;;5014979;28;20415;-86
2022/11/25 08:58:42;;;;;;;4.37;3.57;;;4.90;97.30;;;;;;5015800;28;20996;-86
2022/11/25 09:01:09;;;;;;;3.17;2.33;;;5.10;97.30;;;;;;5015427;28;20455;-87
2022/11/25 09:03:37;;;;;;;5.17;3.07;;;5.20;97.30;;;;;;5015259;28;20200;-88
2022/11/25 09:06:03;;;;;;;5.43;2.90;;;5.30;97.30;;;;;;5015389;28;20941;-87
2022/11/25 09:08:30;;;;;;;2.77;2.57;;;5.40;97.30;;;;;;5015508;28;20511;-87
2022/11/25 09:10:56;;;;;;;5.37;2.83;;;5.50;97.30;;;;;;5032815;28;20435;-88
2022/11/25 09:13:22;;;;;;;2.80;1.97;;;5.60;97.30;;;;;;5031674;28;20486;-87
2022/11/25 09:15:47;;;;;;;4.60;2.77;;;5.70;97.30;;;;;;5015234;28;21039;-86
2022/11/25 09:18:14;;;;;;;2.73;2.60;;;5.80;97.30;;;;;;5015188;28;20547;-87
2022/11/25 09:20:40;;;;;;;3.70;3.50;;;5.90;97.30;;;;;;5014898;28;20455;-87
2022/11/25 09:23:07;;;;;;;8.23;3.80;;;5.90;97.30;;;;;;5032443;28;20511;-86
2022/11/25 09:25:34;;;;;;;3.20;3.00;;;5.90;97.30;;;;;;5014866;28;20353;-87
2022/11/25 09:28:00;;;;;;;3.00;2.70;;;5.90;97.30;;;;;;5014565;28;20773;-87
2022/11/25 09:30:25;;;;;;;3.40;3.20;;;5.90;97.30;;;;;;5015026;28;20423;-87
2022/11/25 09:32:53;;;;;;;2.07;1.77;;;6.00;97.30;;;;;;5032096;28;20326;-86
2022/11/25 09:35:20;;;;;;;2.73;2.40;;;6.10;97.30;;;;;;5015000;28;20571;-86
2022/11/25 09:37:45;;;;;;;3.13;2.53;;;6.10;97.30;;;;;;5014702;28;20482;-87
2022/11/25 09:40:50;;;;;;;2.60;1.97;;;6.20;97.30;;;;;;5015066;28;20525;-87
2022/11/25 09:46:58;;;;;;;3.97;3.77;;;6.30;97.30;;;;;;5030608;28;20434;-86
2022/11/25 09:49:30;;;;;;;5.97;4.30;;;6.40;97.30;;;;;;5014691;28;20417;-86
2022/11/25 09:52:26;;;;;;;2.50;1.93;;;6.40;97.30;;;;;;5014826;28;20441;-86
2022/11/25 09:55:24;;;;;;;4.93;2.53;;;6.50;97.30;;;;;;5014839;28;20419;-86
2022/11/25 09:58:11;;;;;;;2.37;1.53;;;6.50;97.30;;;;;;5032129;28;20431;-86
2022/11/25 10:00:40;;;;;;;2.43;2.00;;;6.60;97.30;;;;;;5015459;28;20475;-86
2022/11/25 10:03:32;;;;;;;1.50;1.40;;;6.60;97.30;;;;;;5031736;28;20515;-86
2022/11/25 10:06:04;;;;;;;1.73;1.50;;;6.70;97.30;;;;;;5014243;28;20476;-87
2022/11/25 10:08:36;;;;;;;3.77;2.13;;;6.80;97.30;;;;;;5014274;28;20957;-86
2022/11/25 10:11:13;;;;;;;4.93;2.10;;;6.80;97.30;;;;;;5013483;28;20418;-86
2022/11/25 10:13:55;;;;;;;3.97;3.53;;;6.90;97.30;;;;;;5014504;28;20439;-86
2022/11/25 10:16:46;;;;;;;4.63;2.33;;;6.90;97.30;;;;;;5013797;28;20419;-87
2022/11/25 10:19:21;;;;;;;1.67;1.57;;;6.90;97.30;;;;;;5014285;28;20403;-87
2022/11/25 10:21:46;;;;;;;3.80;3.13;;;6.90;97.30;;;;;;5031731;28;20662;-86
2022/11/25 10:24:16;;;;;;;2.93;2.60;;;6.90;97.30;;;;;;5032016;28;21097;-85
2022/11/25 10:26:53;;;;;;;4.27;3.60;;;7.00;97.30;;;;;;5014114;28;20204;-86
2022/11/25 10:29:24;;;;;;;3.10;2.90;;;7.00;97.30;;;;;;5032236;28;20411;-87
2022/11/25 10:31:58;;;;;;;2.33;2.10;;;7.00;97.30;;;;;;5017450;28;20961;-86
2022/11/25 10:34:44;;;;;;;2.80;1.50;;;7.10;97.30;;;;;;5050884;28;20417;-86
2022/11/25 10:37:28;;;;;;;2.30;2.10;;;7.10;97.30;;;;;;4981443;28;20440;-84
2022/11/25 10:39:53;;;;;;;1.60;1.50;;;7.20;97.30;;;;;;5038975;28;20497;-85
2022/11/25 10:42:22;;;;;;;5.23;3.13;;;7.20;97.30;;;;;;5059344;28;20454;-85
2022/11/25 10:44:47;;;;;;;1.80;1.70;;;7.20;97.30;;;;;;5038359;28;20203;-86
2022/11/25 10:47:28;;;;;;;5.20;2.73;;;7.20;97.30;;;;;;5038108;28;20510;-86
2022/11/25 10:50:00;;;;;;;6.17;3.40;;;7.30;97.30;;;;;;5038089;28;20179;-86
2022/11/25 10:52:29;;;;;;;1.27;1.20;;;7.30;97.30;;;;;;5054365;28;20975;-86
2022/11/25 10:55:16;;;;;;;2.03;1.93;;;7.40;97.30;;;;;;5030200;28;20944;-86
2022/11/25 10:57:41;;;;;;;2.17;2.00;;;7.50;97.30;;;;;;5017721;28;20447;-86
2022/11/25 11:00:25;;;;;;;17.90;3.53;;;7.50;97.30;;;;;;5017909;28;20451;-86
2022/11/25 11:02:52;;;;;;;4.57;2.80;;;7.70;97.30;;;;;;5033960;28;20196;-86
2022/11/25 11:05:29;;;;;;;7.17;2.60;;;7.80;97.30;;;;;;5035505;28;20454;-86
2022/11/25 11:08:20;;;;;;;1.70;1.60;;;7.90;97.30;;;;;;5017829;28;20525;-86
2022/11/25 11:11:10;;;;;;;2.00;1.90;;;8.10;97.30;;;;;;5017397;28;20446;-86
2022/11/25 11:13:36;;;;;;;1.83;1.50;;;8.20;97.30;;;;;;5015679;28;20450;-86
2022/11/25 11:16:02;;;;;;;1.77;1.70;;;8.40;97.30;;;;;;5016050;28;20398;-86
2022/11/25 11:18:37;;;;;;;5.43;1.50;;;8.50;97.30;;;;;;5016003;28;20811;-87
2022/11/25 11:21:05;;;;;;;3.40;2.33;;;8.50;97.30;;;;;;5033904;28;20795;-86
2022/11/25 11:23:56;;;;;;;2.07;1.50;;;8.50;97.30;;;;;;5031770;28;20984;-86
2022/11/25 11:26:30;;;;;;;2.70;2.50;;;8.50;97.30;;;;;;5033757;28;20433;-85
2022/11/25 11:29:14;;;;;;;1.20;1.10;;;8.50;97.30;;;;;;5033837;28;20410;-86
2022/11/25 11:31:47;;;;;;;2.10;1.33;;;8.50;97.30;;;;;;5034725;28;20430;-86
2022/11/25 11:34:46;;;;;;;1.60;1.50;;;8.60;97.30;;;;;;5017284;28;20427;-86
2022/11/25 11:37:36;;;;;;;2.00;1.50;;;8.60;97.30;;;;;;5017417;28;20926;-86
2022/11/25 11:40:08;;;;;;;1.90;1.80;;;8.60;97.30;;;;;;5035578;28;20411;-86
2022/11/25 11:43:01;;;;;;;2.40;1.77;;;8.70;97.30;;;;;;5017046;28;20522;-86
2022/11/25 11:46:06;;;;;;;1.30;1.20;;;8.80;97.30;;;;;;5017290;28;20509;-86
2022/11/25 11:48:38;;;;;;;1.93;1.73;;;8.80;97.30;;;;;;5016857;28;20415;-86
2022/11/25 11:51:25;;;;;;;12.13;2.33;;;8.90;97.30;;;;;;5016858;28;21048;-87
2022/11/25 11:54:09;;;;;;;2.03;1.43;;;8.90;97.30;;;;;;5017231;28;20916;-86
2022/11/25 11:56:58;;;;;;;1.13;1.03;;;8.90;97.30;;;;;;5017105;28;20415;-86
2022/11/25 11:59:48;;;;;;;3.57;1.73;;;8.90;97.30;;;;;;5016773;28;20821;-86
2022/11/25 12:02:35;;;;;;;1.07;0.97;;;9.00;97.30;;;;;;5016723;28;20435;-86
2022/11/25 12:05:12;;;;;;;1.70;1.60;;;9.00;97.30;;;;;;5034763;28;20526;-86
2022/11/25 12:07:51;;;;;;;1.13;1.07;;;9.00;97.30;;;;;;5016643;28;20501;-86
2022/11/25 12:10:49;;;;;;;1.30;1.20;;;9.10;97.30;;;;;;5016774;28;20795;-86
2022/11/25 12:13:24;;;;;;;1.47;1.37;;;9.10;97.30;;;;;;4976280;28;20459;-86
2022/11/25 12:16:09;;;;;;;1.00;0.90;;;9.10;97.30;;;;;;5016850;28;20427;-87
2022/11/25 12:19:07;;;;;;;4.33;1.80;;;9.10;97.30;;;;;;5016457;28;20419;-86
2022/11/25 12:21:45;;;;;;;1.63;1.30;;;9.20;97.30;;;;;;5016465;28;20514;-86
2022/11/25 12:24:36;;;;;;;1.27;1.00;;;9.20;97.30;;;;;;5009533;28;20458;-86
2022/11/25 12:27:17;;;;;;;1.83;1.73;;;9.20;97.30;;;;;;5019464;28;20411;-86
2022/11/25 12:30:02;;;;;;;0.90;0.80;;;9.20;97.30;;;;;;5019368;28;20410;-87
2022/11/25 12:32:41;;;;;;;1.20;1.10;;;9.20;97.30;;;;;;5018944;28;20477;-86
2022/11/25 12:35:09;;;;;;;2.20;1.33;;;9.20;97.30;;;;;;5019537;28;20426;-86
2022/11/25 12:38:02;;;;;;;6.57;1.80;;;9.20;97.30;;;;;;5019288;28;20415;-86
2022/11/25 12:40:28;;;;;;;3.43;3.23;;;9.20;97.30;;;;;;5019270;28;20415;-85
2022/11/25 12:43:02;;;;;;;1.67;1.57;;;9.20;97.30;;;;;;5053536;28;21118;-86
2022/11/25 12:45:27;;;;;;;1.10;1.00;;;9.30;97.30;;;;;;4968275;28;20397;-87
2022/11/25 12:47:53;;;;;;;1.67;1.37;;;9.30;97.30;;;;;;4968110;28;21057;-86
2022/11/25 12:50:28;;;;;;;1.57;1.47;;;9.30;97.30;;;;;;4968083;28;20176;-87
2022/11/25 12:53:23;;;;;;;1.40;1.30;;;9.40;97.30;;;;;;4968053;28;20246;-86
2022/11/25 12:55:48;;;;;;;3.17;2.50;;;9.40;97.30;;;;;;5054311;28;20413;-87
2022/11/25 12:58:17;;;;;;;3.70;2.30;;;9.40;97.30;;;;;;4968465;28;20411;-87
2022/11/25 13:01:02;;;;;;;2.30;1.80;;;9.50;97.30;;;;;;4968010;28;20749;-87
2022/11/25 13:03:34;;;;;;;1.93;1.47;;;9.50;97.30;;;;;;5053419;28;20430;-86
2022/11/25 13:06:23;;;;;;;1.47;1.37;;;9.50;97.30;;;;;;5053579;28;20414;-86
2022/11/25 13:09:19;;;;;;;1.27;1.17;;;9.50;97.30;;;;;;4968183;28;20445;-86
2022/11/25 13:12:07;;;;;;;1.30;1.20;;;9.60;97.30;;;;;;4967900;28;20434;-86
2022/11/25 13:15:06;;;;;;;3.57;2.23;;;9.60;97.30;;;;;;5053295;28;20505;-86
2022/11/25 13:17:36;;;;;;;1.10;1.00;;;9.60;97.30;;;;;;4968059;28;20987;-86
2022/11/25 13:20:27;;;;;;;3.80;3.17;;;9.60;97.30;;;;;;4967561;28;20481;-85
2022/11/25 13:23:12;;;;;;;1.47;1.33;;;9.60;97.30;;;;;;5052872;28;20799;-86
2022/11/25 13:25:40;;;;;;;1.00;0.90;;;9.60;97.30;;;;;;5031127;28;20462;-85
2022/11/25 13:28:35;;;;;;;1.23;1.13;;;9.60;97.30;;;;;;5032055;28;20481;-85